createdAt,value
2022-08-01T00:00:08.705Z,68.87
2022-08-01T00:02:39.855Z,69.31
2022-08-01T00:05:08.052Z,69.91
2022-08-01T00:07:37.427Z,70.59
2022-08-01T00:10:06.050Z,71.39
2022-08-01T00:12:33.826Z,70.68
2022-08-01T00:15:01.244Z,68.93
2022-08-01T00:17:28.595Z,68.58
2022-08-01T00:19:55.980Z,68.91
2022-08-01T00:22:23.038Z,69.62
2022-08-01T00:24:50.275Z,70.33
2022-08-01T00:27:17.416Z,70.94
2022-08-01T00:30:12.431Z,70.80
2022-08-01T00:32:32.933Z,69.20
2022-08-01T00:35:00.386Z,68.94
2022-08-01T00:37:27.440Z,69.44
2022-08-01T00:39:55.075Z,70.02
2022-08-01T00:42:25.362Z,70.57
2022-08-01T00:44:52.560Z,71.33
2022-08-01T00:47:20.059Z,71.20
2022-08-01T00:49:47.573Z,69.47
2022-08-01T00:52:14.900Z,68.95
2022-08-01T00:54:42.495Z,69.23
2022-08-01T00:57:10.169Z,69.80
2022-08-01T00:59:39.959Z,70.63
2022-08-01T01:02:14.726Z,71.45
2022-08-01T01:04:43.909Z,71.08
2022-08-01T01:07:14.197Z,69.63
2022-08-01T01:09:46.327Z,69.11
2022-08-01T01:12:13.512Z,69.51
2022-08-01T01:14:47.656Z,70.06
2022-08-01T01:17:41.978Z,70.77
2022-08-01T01:20:07.151Z,71.80
2022-08-01T01:22:56.623Z,71.20
2022-08-01T01:25:34.889Z,69.34
2022-08-01T01:28:49.476Z,69.13
2022-08-01T01:31:16.540Z,69.68
2022-08-01T01:33:47.466Z,70.54
2022-08-01T01:36:14.864Z,71.01
2022-08-01T01:38:43.317Z,70.84
2022-08-01T01:41:15.314Z,69.55
2022-08-01T01:43:42.904Z,69.03
2022-08-01T01:46:10.992Z,69.44
2022-08-01T01:48:38.576Z,70.13
2022-08-01T01:51:05.867Z,70.49
2022-08-01T01:53:34.587Z,70.91
2022-08-01T01:56:02.214Z,70.94
2022-08-01T01:58:29.274Z,69.50
2022-08-01T02:00:57.695Z,68.59
2022-08-01T02:03:25.117Z,68.84
2022-08-01T02:05:53.113Z,69.45
2022-08-01T02:08:20.503Z,70.25
2022-08-01T02:11:06.855Z,71.25
2022-08-01T02:13:34.900Z,70.28
2022-08-01T02:16:02.355Z,68.95
2022-08-01T02:18:29.686Z,68.67
2022-08-01T02:20:56.907Z,68.98
2022-08-01T02:23:24.791Z,69.43
2022-08-01T02:26:10.431Z,70.14
2022-08-01T02:28:48.910Z,71.45
2022-08-01T02:31:18.460Z,70.56
2022-08-01T02:33:47.297Z,68.64
2022-08-01T02:36:31.612Z,68.35
2022-08-01T02:39:03.372Z,68.92
2022-08-01T02:41:30.560Z,69.67
2022-08-01T02:44:00.084Z,70.28
2022-08-01T02:46:31.362Z,71.56
2022-08-01T02:49:00.396Z,71.02
2022-08-01T02:51:27.608Z,69.16
2022-08-01T02:54:03.924Z,68.81
2022-08-01T02:56:36.015Z,69.36
2022-08-01T02:59:14.616Z,70.03
2022-08-01T03:01:42.234Z,70.80
2022-08-01T03:04:11.059Z,71.53
2022-08-01T03:06:38.764Z,71.12
2022-08-01T03:09:06.312Z,69.87
2022-08-01T03:11:34.018Z,69.42
2022-08-01T03:16:25.011Z,70.47
2022-08-01T03:18:54.313Z,71.01
2022-08-01T03:21:21.985Z,71.65
2022-08-01T03:23:53.428Z,71.15
2022-08-01T03:26:22.303Z,69.65
2022-08-01T03:28:49.687Z,69.08
2022-08-01T03:31:16.951Z,69.19
2022-08-01T03:33:44.459Z,69.84
2022-08-01T03:36:11.791Z,70.34
2022-08-01T03:38:39.259Z,70.92
2022-08-01T03:41:18.834Z,70.75
2022-08-01T03:44:00.917Z,69.41
2022-08-01T03:46:31.446Z,68.86
2022-08-01T03:49:00.081Z,69.41
2022-08-01T03:51:27.392Z,70.40
2022-08-01T03:53:54.785Z,70.84
2022-08-01T03:56:22.013Z,71.21
2022-08-01T03:58:50.218Z,71.15
2022-08-01T04:01:18.450Z,69.68
2022-08-01T04:03:45.814Z,69.26
2022-08-01T04:06:15.095Z,69.55
2022-08-01T04:08:42.566Z,70.34
2022-08-01T04:11:13.396Z,70.97
2022-08-01T04:13:40.543Z,71.88
2022-08-01T04:16:11.760Z,71.43
2022-08-01T04:18:38.939Z,69.52
2022-08-01T04:21:06.241Z,69.15
2022-08-01T04:23:33.676Z,69.41
2022-08-01T04:26:00.990Z,70.10
2022-08-01T04:28:28.259Z,70.78
2022-08-01T04:31:01.232Z,71.14
2022-08-01T04:33:30.021Z,71.06
2022-08-01T04:36:02.323Z,68.68
2022-08-01T04:38:34.438Z,68.43
2022-08-01T04:41:08.986Z,68.67
2022-08-01T04:43:38.148Z,69.23
2022-08-01T04:46:06.856Z,70.11
2022-08-01T04:48:37.408Z,70.69
2022-08-01T04:51:04.983Z,69.46
2022-08-01T04:53:33.586Z,68.25
2022-08-01T04:56:01.706Z,67.83
2022-08-01T04:58:29.272Z,68.02
2022-08-01T05:00:56.335Z,69.00
2022-08-01T05:03:23.547Z,69.69
2022-08-01T05:05:51.451Z,70.41
2022-08-01T05:08:18.588Z,69.12
2022-08-01T05:10:46.035Z,67.35
2022-08-01T05:13:16.634Z,66.55
2022-08-01T05:15:43.860Z,66.65
2022-08-01T05:18:10.947Z,67.97
2022-08-01T05:20:38.439Z,68.13
2022-08-01T05:23:06.293Z,68.91
2022-08-01T05:25:56.657Z,68.16
2022-08-01T05:28:24.725Z,66.81
2022-08-01T05:30:56.132Z,66.12
2022-08-01T05:33:26.532Z,66.44
2022-08-01T05:35:53.716Z,67.47
2022-08-01T05:38:20.720Z,68.26
2022-08-01T05:40:47.963Z,69.30
2022-08-01T05:43:15.236Z,68.70
2022-08-01T05:45:42.745Z,66.79
2022-08-01T05:48:09.944Z,66.24
2022-08-01T05:50:37.280Z,65.95
2022-08-01T05:53:04.604Z,67.05
2022-08-01T05:55:32.127Z,67.31
2022-08-01T05:57:59.244Z,67.79
2022-08-01T06:00:27.021Z,68.61
2022-08-01T06:02:54.363Z,68.55
2022-08-01T06:05:21.632Z,66.85
2022-08-01T06:07:49.483Z,65.33
2022-08-01T06:10:16.869Z,64.97
2022-08-01T06:12:44.068Z,65.56
2022-08-01T06:15:11.670Z,65.79
2022-08-01T06:17:40.099Z,66.67
2022-08-01T06:20:08.631Z,67.36
2022-08-01T06:22:35.850Z,66.58
2022-08-01T06:25:04.446Z,64.64
2022-08-01T06:27:32.000Z,63.63
2022-08-01T06:29:59.631Z,64.12
2022-08-01T06:32:27.970Z,64.48
2022-08-01T06:34:56.035Z,65.26
2022-08-01T06:37:24.337Z,66.47
2022-08-01T06:39:51.564Z,67.15
2022-08-01T06:42:18.964Z,66.56
2022-08-01T06:44:46.473Z,64.87
2022-08-01T06:47:13.908Z,64.17
2022-08-01T06:49:41.064Z,64.34
2022-08-01T06:52:08.587Z,64.32
2022-08-01T06:54:36.259Z,64.67
2022-08-01T06:57:06.736Z,65.82
2022-08-01T06:59:34.534Z,66.26
2022-08-01T07:02:02.612Z,65.82
2022-08-01T07:04:29.946Z,64.14
2022-08-01T07:06:57.732Z,63.66
2022-08-01T07:09:25.006Z,64.44
2022-08-01T07:11:53.511Z,65.10
2022-08-01T07:14:21.555Z,65.35
2022-08-01T07:16:48.711Z,65.15
2022-08-01T07:19:15.909Z,65.91
2022-08-01T07:21:42.989Z,66.13
2022-08-01T07:24:16.753Z,64.69
2022-08-01T07:26:52.436Z,62.67
2022-08-01T07:29:23.860Z,62.36
2022-08-01T07:31:52.100Z,63.65
2022-08-01T07:34:19.387Z,64.58
2022-08-01T07:36:47.001Z,64.92
2022-08-01T07:39:14.143Z,64.81
2022-08-01T07:41:53.517Z,65.34
2022-08-01T07:44:29.342Z,65.63
2022-08-01T07:46:56.710Z,65.49
2022-08-01T07:49:24.177Z,63.12
2022-08-01T07:52:03.559Z,61.43
2022-08-01T07:54:35.196Z,61.49
2022-08-01T07:57:02.650Z,61.52
2022-08-01T07:59:29.890Z,62.01
2022-08-01T08:01:57.006Z,61.83
2022-08-01T08:04:24.262Z,62.20
2022-08-01T08:06:51.965Z,63.95
2022-08-01T08:09:19.674Z,63.12
2022-08-01T08:11:48.596Z,63.83
2022-08-01T08:14:17.135Z,63.87
2022-08-01T08:16:47.876Z,62.06
2022-08-01T08:19:15.440Z,61.44
2022-08-01T08:21:42.998Z,61.04
2022-08-01T08:24:26.338Z,60.86
2022-08-01T08:27:02.742Z,61.42
2022-08-01T08:29:31.589Z,62.58
2022-08-01T08:31:58.937Z,62.98
2022-08-01T08:34:27.366Z,62.89
2022-08-01T08:36:55.749Z,63.93
2022-08-01T08:39:23.538Z,63.20
2022-08-01T08:41:50.811Z,61.19
2022-08-01T08:44:18.431Z,60.64
2022-08-01T08:46:52.075Z,60.65
2022-08-01T08:49:22.078Z,60.25
2022-08-01T08:51:51.006Z,62.48
2022-08-01T08:54:20.721Z,61.52
2022-08-01T08:56:48.122Z,62.61
2022-08-01T08:59:15.499Z,63.63
2022-08-01T09:01:45.906Z,64.05
2022-08-01T09:04:16.459Z,63.59
2022-08-01T09:06:43.734Z,61.87
2022-08-01T09:09:11.454Z,61.57
2022-08-01T09:11:39.048Z,61.88
2022-08-01T09:14:12.014Z,61.27
2022-08-01T09:16:48.901Z,61.25
2022-08-01T09:19:39.899Z,62.63
2022-08-01T09:22:19.074Z,63.07
2022-08-01T09:24:58.557Z,63.84
2022-08-01T09:27:26.589Z,63.64
2022-08-01T09:30:01.803Z,62.91
2022-08-01T09:32:35.204Z,60.96
2022-08-01T09:35:32.021Z,59.63
2022-08-01T09:38:23.855Z,60.15
2022-08-01T09:40:52.944Z,60.12
2022-08-01T09:43:21.536Z,60.55
2022-08-01T09:45:53.295Z,60.89
2022-08-01T09:48:22.742Z,61.52
2022-08-01T09:50:55.637Z,62.04
2022-08-01T09:53:29.980Z,62.39
2022-08-01T09:56:10.623Z,62.51
2022-08-01T09:59:01.104Z,62.32
2022-08-01T10:01:38.519Z,63.37
2022-08-01T10:04:13.092Z,62.60
2022-08-01T10:06:44.044Z,61.14
2022-08-01T10:09:13.284Z,59.96
2022-08-01T10:11:43.143Z,59.54
2022-08-01T10:14:14.440Z,59.47
2022-08-01T10:16:45.614Z,60.83
2022-08-01T10:19:15.515Z,61.42
2022-08-01T10:21:57.464Z,61.85
2022-08-01T10:24:30.642Z,61.59
2022-08-01T10:27:07.973Z,61.76
2022-08-01T10:30:05.140Z,61.94
2022-08-01T10:32:36.669Z,62.08
2022-08-01T10:35:07.235Z,60.41
2022-08-01T10:37:51.634Z,59.36
2022-08-01T10:40:31.564Z,59.07
2022-08-01T10:42:59.169Z,59.11
2022-08-01T10:45:30.258Z,59.49
2022-08-01T10:48:20.870Z,59.94
2022-08-01T10:50:53.420Z,60.70
2022-08-01T10:53:31.480Z,61.40
2022-08-01T10:56:13.198Z,62.40
2022-08-01T10:58:44.351Z,62.94
2022-08-01T11:01:16.146Z,63.17
2022-08-01T11:03:57.590Z,62.11
2022-08-01T11:06:29.598Z,59.12
2022-08-01T11:09:36.251Z,59.58
2022-08-01T11:12:08.484Z,59.75
2022-08-01T11:14:59.380Z,58.93
2022-08-01T11:17:48.464Z,59.62
2022-08-01T11:20:17.380Z,60.79
2022-08-01T11:23:06.867Z,60.46
2022-08-01T11:26:03.031Z,60.98
2022-08-01T11:28:33.261Z,61.96
2022-08-01T11:31:11.335Z,62.08
2022-08-01T11:33:49.359Z,62.11
2022-08-01T11:36:17.097Z,62.45
2022-08-01T11:38:51.370Z,62.30
2022-08-01T11:41:18.844Z,60.03
2022-08-01T11:43:58.994Z,59.15
2022-08-01T11:46:51.127Z,59.37
2022-08-01T11:49:33.771Z,60.91
2022-08-01T11:52:02.983Z,61.23
2022-08-01T11:54:39.940Z,59.66
2022-08-01T11:57:10.802Z,57.82
2022-08-01T12:00:02.808Z,59.35
2022-08-01T12:02:41.179Z,59.11
2022-08-01T12:05:17.612Z,58.92
2022-08-01T12:07:47.391Z,59.66
2022-08-01T12:10:18.328Z,60.53
2022-08-01T12:12:54.861Z,59.24
2022-08-01T12:15:24.208Z,60.13
2022-08-01T12:17:59.862Z,60.87
2022-08-01T12:20:38.120Z,61.03
2022-08-01T12:23:09.821Z,61.82
2022-08-01T12:25:37.574Z,60.52
2022-08-01T12:28:05.879Z,58.71
2022-08-01T12:30:36.719Z,54.92
2022-08-01T12:33:08.853Z,56.75
2022-08-01T12:35:38.956Z,57.26
2022-08-01T12:38:15.056Z,57.26
2022-08-01T12:40:45.288Z,57.36
2022-08-01T12:43:26.782Z,57.28
2022-08-01T12:45:57.834Z,57.74
2022-08-01T12:48:25.408Z,57.86
2022-08-01T12:50:53.571Z,59.22
2022-08-01T12:53:21.891Z,60.00
2022-08-01T12:55:58.452Z,59.12
2022-08-01T12:58:33.686Z,59.89
2022-08-01T13:01:11.847Z,58.58
2022-08-01T13:03:39.329Z,59.42
2022-08-01T13:06:17.874Z,60.09
2022-08-01T13:08:46.138Z,59.03
2022-08-01T13:11:18.390Z,58.98
2022-08-01T13:13:50.316Z,60.05
2022-08-01T13:16:30.331Z,58.85
2022-08-01T13:19:05.887Z,59.63
2022-08-01T13:21:52.242Z,59.90
2022-08-01T13:24:26.855Z,60.49
2022-08-01T13:27:02.205Z,61.23
2022-08-01T13:29:33.883Z,61.86
2022-08-01T13:32:02.469Z,61.79
2022-08-01T13:34:36.123Z,62.20
2022-08-01T13:37:03.338Z,61.48
2022-08-01T13:39:48.546Z,59.98
2022-08-01T13:42:19.403Z,59.73
2022-08-01T13:44:46.832Z,60.22
2022-08-01T13:47:15.603Z,60.85
2022-08-01T13:49:44.586Z,61.36
2022-08-01T13:52:11.871Z,61.96
2022-08-01T13:54:39.036Z,62.60
2022-08-01T13:57:06.520Z,62.70
2022-08-01T13:59:33.779Z,62.89
2022-08-01T14:02:00.996Z,63.53
2022-08-01T14:04:28.388Z,62.90
2022-08-01T14:06:55.506Z,61.06
2022-08-01T14:09:24.815Z,60.10
2022-08-01T14:11:53.107Z,60.53
2022-08-01T14:14:20.452Z,60.80
2022-08-01T14:16:48.325Z,61.34
2022-08-01T14:19:17.688Z,61.64
2022-08-01T14:21:46.715Z,62.15
2022-08-01T14:24:13.888Z,63.02
2022-08-01T14:26:41.016Z,63.27
2022-08-01T14:29:08.181Z,63.97
2022-08-01T14:31:35.531Z,63.19
2022-08-01T14:34:02.964Z,61.32
2022-08-01T14:36:31.732Z,60.91
2022-08-01T14:39:00.923Z,61.09
2022-08-01T14:41:30.849Z,61.40
2022-08-01T14:43:58.859Z,62.00
2022-08-01T14:46:25.900Z,62.75
2022-08-01T14:48:53.132Z,63.18
2022-08-01T14:51:20.407Z,63.65
2022-08-01T14:53:52.995Z,64.43
2022-08-01T14:56:20.554Z,63.75
2022-08-01T14:58:49.886Z,62.26
2022-08-01T15:01:17.507Z,61.90
2022-08-01T15:03:44.907Z,61.93
2022-08-01T15:06:13.744Z,62.24
2022-08-01T15:08:41.504Z,62.47
2022-08-01T15:11:09.821Z,63.17
2022-08-01T15:13:42.656Z,63.32
2022-08-01T15:16:12.129Z,63.62
2022-08-01T15:18:39.567Z,64.26
2022-08-01T15:21:07.087Z,63.26
2022-08-01T15:23:34.489Z,61.77
2022-08-01T15:26:02.033Z,61.36
2022-08-01T15:28:29.386Z,61.71
2022-08-01T15:30:56.547Z,62.24
2022-08-01T15:33:24.531Z,62.64
2022-08-01T15:35:53.068Z,63.05
2022-08-01T15:38:20.639Z,63.57
2022-08-01T15:40:47.754Z,64.38
2022-08-01T15:43:15.822Z,64.81
2022-08-01T15:45:48.060Z,64.44
2022-08-01T15:48:17.123Z,63.18
2022-08-01T15:50:44.207Z,62.41
2022-08-01T15:53:11.380Z,62.72
2022-08-01T15:55:39.176Z,63.28
2022-08-01T15:58:07.621Z,64.07
2022-08-01T16:00:39.068Z,64.71
2022-08-01T16:03:08.077Z,65.18
2022-08-01T16:05:42.948Z,66.15
2022-08-01T16:08:12.438Z,65.39
2022-08-01T16:10:39.620Z,63.97
2022-08-01T16:13:07.918Z,63.50
2022-08-01T16:15:36.523Z,63.75
2022-08-01T16:18:05.729Z,64.18
2022-08-01T16:20:32.924Z,64.54
2022-08-01T16:23:00.205Z,65.09
2022-08-01T16:25:27.366Z,65.39
2022-08-01T16:27:54.495Z,65.94
2022-08-01T16:30:21.667Z,65.67
2022-08-01T16:32:51.415Z,64.06
2022-08-01T16:35:32.708Z,63.36
2022-08-01T16:38:04.610Z,63.15
2022-08-01T16:40:34.972Z,63.43
2022-08-01T16:43:15.829Z,63.98
2022-08-01T16:45:43.401Z,64.56
2022-08-01T16:48:12.071Z,65.04
2022-08-01T16:50:39.596Z,65.24
2022-08-01T16:53:06.779Z,64.82
2022-08-01T16:55:49.613Z,63.11
2022-08-01T16:58:27.187Z,62.28
2022-08-01T17:00:57.721Z,62.54
2022-08-01T17:03:51.774Z,62.93
2022-08-01T17:06:14.224Z,63.34
2022-08-01T17:08:46.412Z,63.91
2022-08-01T17:11:14.777Z,64.45
2022-08-01T17:13:42.593Z,65.63
2022-08-01T17:16:09.893Z,65.59
2022-08-01T17:18:37.279Z,64.25
2022-08-01T17:21:04.576Z,64.13
2022-08-01T17:23:32.265Z,64.31
2022-08-01T17:25:59.897Z,65.01
2022-08-01T17:28:27.235Z,65.82
2022-08-01T17:30:54.415Z,66.57
2022-08-01T17:33:21.478Z,67.46
2022-08-01T17:35:48.735Z,67.20
2022-08-01T17:38:16.055Z,65.84
2022-08-01T17:40:44.570Z,65.39
2022-08-01T17:43:12.080Z,65.68
2022-08-01T17:45:50.917Z,66.31
2022-08-01T17:48:19.544Z,67.05
2022-08-01T17:50:47.683Z,67.59
2022-08-01T17:53:15.558Z,68.43
2022-08-01T17:55:55.656Z,67.74
2022-08-01T17:58:50.040Z,66.24
2022-08-01T18:01:13.967Z,65.84
2022-08-01T18:03:41.956Z,66.11
2022-08-01T18:06:10.413Z,66.81
2022-08-01T18:08:40.577Z,67.21
2022-08-01T18:11:08.055Z,68.01
2022-08-01T18:13:40.485Z,68.62
2022-08-01T18:16:10.143Z,68.16
2022-08-01T18:18:38.864Z,66.47
2022-08-01T18:21:06.716Z,66.14
2022-08-01T18:23:34.760Z,66.36
2022-08-01T18:26:06.954Z,66.89
2022-08-01T18:28:41.755Z,67.47
2022-08-01T18:31:16.701Z,68.38
2022-08-01T18:33:44.236Z,67.98
2022-08-01T18:36:30.712Z,66.55
2022-08-01T18:38:59.387Z,66.12
2022-08-01T18:41:26.822Z,66.49
2022-08-01T18:44:05.569Z,67.18
2022-08-01T18:46:37.084Z,68.05
2022-08-01T18:49:05.518Z,69.03
2022-08-01T18:51:32.908Z,68.68
2022-08-01T18:54:00.254Z,67.20
2022-08-01T18:56:27.478Z,66.84
2022-08-01T18:58:55.148Z,66.99
2022-08-01T19:01:22.507Z,67.51
2022-08-01T19:03:50.066Z,68.16
2022-08-01T19:06:17.288Z,69.02
2022-08-01T19:08:46.387Z,68.76
2022-08-01T19:11:13.731Z,67.29
2022-08-01T19:13:40.902Z,66.78
2022-08-01T19:16:08.119Z,67.17
2022-08-01T19:18:35.231Z,67.88
2022-08-01T19:21:07.055Z,68.74
2022-08-01T19:23:53.622Z,69.65
2022-08-01T19:26:23.350Z,69.10
2022-08-01T19:28:52.428Z,67.53
2022-08-01T19:31:27.860Z,67.20
2022-08-01T19:33:55.871Z,67.61
2022-08-01T19:36:23.054Z,68.32
2022-08-01T19:38:50.358Z,68.92
2022-08-01T19:41:18.598Z,69.55
2022-08-01T19:43:47.233Z,69.33
2022-08-01T19:46:17.731Z,67.77
2022-08-01T19:48:49.882Z,67.35
2022-08-01T19:51:18.988Z,67.73
2022-08-01T19:53:50.472Z,68.25
2022-08-01T19:56:23.071Z,68.98
2022-08-01T19:58:52.806Z,69.63
2022-08-01T20:01:27.684Z,69.38
2022-08-01T20:03:55.284Z,67.89
2022-08-01T20:06:23.544Z,67.42
2022-08-01T20:08:51.670Z,67.72
2022-08-01T20:11:21.891Z,68.29
2022-08-01T20:13:49.732Z,68.86
2022-08-01T20:16:16.922Z,69.76
2022-08-01T20:18:44.111Z,69.44
2022-08-01T20:21:11.453Z,68.07
2022-08-01T20:23:39.511Z,67.54
2022-08-01T20:26:06.880Z,67.78
2022-08-01T20:28:36.990Z,68.24
2022-08-01T20:31:05.794Z,68.84
2022-08-01T20:33:35.255Z,69.32
2022-08-01T20:36:02.660Z,68.99
2022-08-01T20:38:31.939Z,67.72
2022-08-01T20:41:00.127Z,67.18
2022-08-01T20:43:28.063Z,67.70
2022-08-01T20:45:55.550Z,68.07
2022-08-01T20:48:22.951Z,68.68
2022-08-01T20:51:09.187Z,70.05
2022-08-01T20:53:40.825Z,69.64
2022-08-01T20:56:13.211Z,67.79
2022-08-01T20:58:54.243Z,67.42
2022-08-01T21:01:29.553Z,67.79
2022-08-01T21:04:08.835Z,68.53
2022-08-01T21:06:42.617Z,69.36
2022-08-01T21:09:10.087Z,70.11
2022-08-01T21:11:46.602Z,69.86
2022-08-01T21:14:14.423Z,68.32
2022-08-01T21:16:43.683Z,67.81
2022-08-01T21:19:22.092Z,68.24
2022-08-01T21:22:16.867Z,68.79
2022-08-01T21:24:58.297Z,69.56
2022-08-01T21:27:33.614Z,70.36
2022-08-01T21:30:06.417Z,69.77
2022-08-01T21:32:34.769Z,68.27
2022-08-01T21:35:02.925Z,67.87
2022-08-01T21:37:31.444Z,68.26
2022-08-01T21:39:59.465Z,68.71
2022-08-01T21:42:30.522Z,69.37
2022-08-01T21:45:00.978Z,70.27
2022-08-01T21:47:29.045Z,69.90
2022-08-01T21:50:00.501Z,68.69
2022-08-01T21:52:27.938Z,68.46
2022-08-01T21:55:05.375Z,68.94
2022-08-01T21:57:50.950Z,69.68
2022-08-01T22:00:25.664Z,70.47
2022-08-01T22:03:05.479Z,71.06
2022-08-01T22:05:50.581Z,70.38
2022-08-01T22:08:34.751Z,68.85
2022-08-01T22:11:06.757Z,68.62
2022-08-01T22:13:34.979Z,68.99
2022-08-01T22:16:05.982Z,69.54
2022-08-01T22:18:33.729Z,70.20
2022-08-01T22:21:01.920Z,70.86
2022-08-01T22:23:29.500Z,70.40
2022-08-01T22:25:56.722Z,68.86
2022-08-01T22:28:24.202Z,68.49
2022-08-01T22:30:51.866Z,68.64
2022-08-01T22:33:19.696Z,69.01
2022-08-01T22:35:49.359Z,69.62
2022-08-01T22:38:21.048Z,70.34
2022-08-01T22:41:03.589Z,70.04
2022-08-01T22:43:42.523Z,68.38
2022-08-01T22:46:22.491Z,67.99
2022-08-01T22:49:01.742Z,68.71
2022-08-01T22:51:54.591Z,69.52
2022-08-01T22:54:29.585Z,70.51
2022-08-01T22:56:57.201Z,71.27
2022-08-01T22:59:42.578Z,70.93
2022-08-01T23:02:12.985Z,68.78
2022-08-01T23:04:44.283Z,68.32
2022-08-01T23:07:11.660Z,68.63
2022-08-01T23:09:53.173Z,69.09
2022-08-01T23:12:23.340Z,69.89
2022-08-01T23:14:52.943Z,70.51
2022-08-01T23:17:27.297Z,70.29
2022-08-01T23:20:00.524Z,68.49
2022-08-01T23:22:31.826Z,68.08
2022-08-01T23:25:04.439Z,68.31
2022-08-01T23:27:55.737Z,69.03
2022-08-01T23:30:24.664Z,69.98
2022-08-01T23:32:51.789Z,70.90
2022-08-01T23:35:18.966Z,70.69
2022-08-01T23:37:46.113Z,69.35
2022-08-01T23:40:13.255Z,69.01
2022-08-01T23:42:40.387Z,69.29
2022-08-01T23:45:08.660Z,69.95
2022-08-01T23:47:35.936Z,70.68
2022-08-01T23:50:03.579Z,71.43
2022-08-01T23:52:32.261Z,71.20
2022-08-01T23:55:10.172Z,69.52
2022-08-01T23:57:43.026Z,69.08
